Time,TemperatureF,DewpointF,PressureIn,WindDirection,WindDirectionDegrees,WindSpeedMPH,WindSpeedGustMPH,Humidity,HourlyPrecipIn,Conditions,Clouds,dailyrainin,SolarRadiationWatts/m^2,SoftwareType,DateUTC
2013-03-03 00:01:00,42.0,42.0,-100.00,NW,316,14.0,21.0,99,0.02,,,0.07,0.000000,,2013-03-03 08:01:00,
2013-03-03 00:11:00,42.0,42.0,-100.00,NW,316,14.0,21.0,99,0.02,,,0.07,0.000000,,2013-03-03 08:11:00,
2013-03-03 00:32:00,42.0,42.0,-100.00,NW,315,12.0,22.0,99,0.00,,,0.07,0.000000,,2013-03-03 08:32:00,
2013-03-03 00:42:00,42.0,42.0,-100.00,NW,315,12.0,22.0,99,0.00,,,0.07,0.000000,,2013-03-03 08:42:00,
2013-03-03 00:54:00,42.0,42.0,-100.00,NW,315,12.0,22.0,99,0.00,,,0.07,0.000000,,2013-03-03 08:54:00,
2013-03-03 01:01:00,42.0,42.0,-100.00,NW,315,12.0,22.0,99,0.00,,,0.07,0.000000,,2013-03-03 09:01:00,
2013-03-03 01:11:00,42.0,42.0,-100.00,NW,315,12.0,22.0,99,0.00,,,0.07,0.000000,,2013-03-03 09:11:00,
2013-03-03 01:32:00,41.0,41.0,-100.00,NW,314,13.0,22.0,99,0.00,,,0.07,0.000000,,2013-03-03 09:32:00,
2013-03-03 01:42:00,41.0,41.0,-100.00,NW,314,13.0,22.0,99,0.00,,,0.07,0.000000,,2013-03-03 09:42:00,
2013-03-03 01:52:00,41.0,41.0,-100.00,NW,314,13.0,22.0,99,0.00,,,0.07,0.000000,,2013-03-03 09:52:00,
2013-03-03 02:01:00,41.0,41.0,-100.00,NW,314,13.0,22.0,99,0.00,,,0.07,0.000000,,2013-03-03 10:01:00,
2013-03-03 02:11:00,41.0,41.0,-100.00,NW,314,13.0,22.0,99,0.00,,,0.07,0.000000,,2013-03-03 10:11:00,
2013-03-03 02:32:00,40.0,40.0,-100.00,NW,316,13.0,20.0,99,0.00,,,0.07,0.000000,,2013-03-03 10:32:00,
2013-03-03 02:42:00,40.0,40.0,-100.00,NW,316,13.0,20.0,99,0.00,,,0.07,0.000000,,2013-03-03 10:42:00,
2013-03-03 02:52:00,40.0,40.0,-100.00,NW,316,13.0,20.0,99,0.00,,,0.07,0.000000,,2013-03-03 10:52:00,
2013-03-03 03:01:00,40.0,40.0,-100.00,NW,316,13.0,20.0,99,0.00,,,0.07,0.000000,,2013-03-03 11:01:00,
2013-03-03 03:11:00,40.0,40.0,-100.00,NW,316,13.0,20.0,99,0.00,,,0.07,0.000000,,2013-03-03 11:11:00,
2013-03-03 03:32:00,40.0,39.0,-100.00,NW,316,13.0,19.0,95,0.00,,,0.07,0.000000,,2013-03-03 11:32:00,
2013-03-03 03:42:00,40.0,39.0,-100.00,NW,316,13.0,19.0,95,0.00,,,0.07,0.000000,,2013-03-03 11:42:00,
2013-03-03 03:52:00,40.0,39.0,-100.00,NW,316,13.0,19.0,95,0.00,,,0.07,0.000000,,2013-03-03 11:52:00,
2013-03-03 04:01:00,40.0,39.0,-100.00,NW,316,13.0,19.0,95,0.00,,,0.07,0.000000,,2013-03-03 12:01:00,
2013-03-03 04:11:00,40.0,39.0,-100.00,NW,316,13.0,19.0,95,0.00,,,0.07,0.000000,,2013-03-03 12:11:00,
2013-03-03 04:32:00,39.0,37.0,-100.00,NW,324,11.0,20.0,93,0.00,,,0.07,0.000000,,2013-03-03 12:32:00,
2013-03-03 04:43:00,39.0,37.0,-100.00,NW,324,11.0,20.0,93,0.00,,,0.07,0.000000,,2013-03-03 12:43:00,
2013-03-03 04:52:00,39.0,37.0,-100.00,NW,324,11.0,20.0,93,0.00,,,0.07,0.000000,,2013-03-03 12:52:00,
2013-03-03 05:01:00,39.0,37.0,-100.00,NW,324,11.0,20.0,93,0.00,,,0.07,0.000000,,2013-03-03 13:01:00,
2013-03-03 05:11:00,39.0,37.0,-100.00,NW,324,11.0,20.0,93,0.00,,,0.07,0.000000,,2013-03-03 13:11:00,
2013-03-03 05:42:00,39.0,36.0,-100.00,NNW,342,6.0,15.0,89,0.00,,,0.07,0.000000,,2013-03-03 13:42:00,
2013-03-03 05:52:00,39.0,36.0,-100.00,NNW,342,6.0,15.0,89,0.00,,,0.07,0.000000,,2013-03-03 13:52:00,
2013-03-03 06:01:00,39.0,36.0,-100.00,NNW,342,6.0,15.0,89,0.00,,,0.07,0.000000,,2013-03-03 14:01:00,
2013-03-03 06:11:00,39.0,36.0,-100.00,NNW,342,6.0,15.0,89,0.00,,,0.07,0.000000,,2013-03-03 14:11:00,
2013-03-03 06:32:00,38.0,34.0,-100.00,NNW,328,8.0,14.0,86,0.00,,,0.07,0.000000,,2013-03-03 14:32:00,
2013-03-03 06:42:00,38.0,34.0,-100.00,NNW,328,8.0,14.0,86,0.00,,,0.07,0.000000,,2013-03-03 14:42:00,
2013-03-03 06:52:00,38.0,34.0,-100.00,NNW,328,8.0,14.0,86,0.00,,,0.07,0.000000,,2013-03-03 14:52:00,
2013-03-03 07:01:00,38.0,34.0,-100.00,NNW,328,8.0,14.0,86,0.00,,,0.07,0.000000,,2013-03-03 15:01:00,
2013-03-03 07:11:00,38.0,34.0,-100.00,NNW,328,8.0,14.0,86,0.00,,,0.07,0.000000,,2013-03-03 15:11:00,
2013-03-03 07:32:00,37.0,35.0,-100.00,NNW,332,6.0,13.0,91,0.00,,,0.07,4.000000,,2013-03-03 15:32:00,
2013-03-03 07:42:00,37.0,35.0,-100.00,NNW,332,6.0,13.0,91,0.00,,,0.07,4.000000,,2013-03-03 15:42:00,
2013-03-03 07:52:00,37.0,35.0,-100.00,NNW,332,6.0,13.0,91,0.00,,,0.07,4.000000,,2013-03-03 15:52:00,
2013-03-03 08:01:00,37.0,35.0,-100.00,NNW,332,6.0,13.0,91,0.00,,,0.07,4.000000,,2013-03-03 16:01:00,
2013-03-03 08:11:00,37.0,35.0,-100.00,NNW,332,6.0,13.0,91,0.00,,,0.07,4.000000,,2013-03-03 16:11:00,
2013-03-03 08:32:00,37.0,35.0,-100.00,NNW,334,5.0,12.0,94,0.00,,,0.06,65.000000,,2013-03-03 16:32:00,
2013-03-03 08:42:00,37.0,35.0,-100.00,NNW,334,5.0,12.0,94,0.00,,,0.06,65.000000,,2013-03-03 16:42:00,
2013-03-03 08:52:00,37.0,35.0,-100.00,NNW,334,5.0,12.0,94,0.00,,,0.06,65.000000,,2013-03-03 16:52:00,
2013-03-03 09:01:00,37.0,35.0,-100.00,NNW,334,5.0,12.0,94,0.00,,,0.06,65.000000,,2013-03-03 17:01:00,
2013-03-03 09:11:00,37.0,35.0,-100.00,NNW,334,5.0,12.0,94,0.00,,,0.06,65.000000,,2013-03-03 17:11:00,
2013-03-03 09:42:00,40.0,38.0,-100.00,NNW,331,4.0,9.0,92,0.00,,,0.06,221.000000,,2013-03-03 17:42:00,
2013-03-03 09:52:00,40.0,38.0,-100.00,NNW,331,4.0,9.0,92,0.00,,,0.06,221.000000,,2013-03-03 17:52:00,
2013-03-03 10:01:00,40.0,38.0,-100.00,NNW,331,4.0,9.0,92,0.00,,,0.06,221.000000,,2013-03-03 18:01:00,
2013-03-03 10:11:00,40.0,38.0,-100.00,NNW,331,4.0,9.0,92,0.00,,,0.06,221.000000,,2013-03-03 18:11:00,
2013-03-03 10:32:00,46.0,40.0,-100.00,NE,34,5.0,10.0,80,0.00,,,0.05,368.000000,,2013-03-03 18:32:00,
2013-03-03 10:42:00,46.0,40.0,-100.00,NE,34,5.0,10.0,80,0.00,,,0.05,368.000000,,2013-03-03 18:42:00,
2013-03-03 10:52:00,46.0,40.0,-100.00,NE,34,5.0,10.0,80,0.00,,,0.05,368.000000,,2013-03-03 18:52:00,
2013-03-03 11:01:00,46.0,40.0,-100.00,NE,34,5.0,10.0,80,0.00,,,0.05,368.000000,,2013-03-03 19:01:00,
2013-03-03 11:11:00,46.0,40.0,-100.00,NE,34,5.0,10.0,80,0.00,,,0.05,368.000000,,2013-03-03 19:11:00,
2013-03-03 11:42:00,49.0,37.0,-100.00,NE,41,6.0,13.0,62,0.00,,,0.05,624.000000,,2013-03-03 19:42:00,
2013-03-03 11:52:00,49.0,37.0,-100.00,NE,41,6.0,13.0,62,0.00,,,0.05,624.000000,,2013-03-03 19:52:00,
2013-03-03 12:01:00,49.0,37.0,-100.00,NE,41,6.0,13.0,62,0.00,,,0.05,624.000000,,2013-03-03 20:01:00,
2013-03-03 12:11:00,49.0,37.0,-100.00,NE,41,6.0,13.0,62,0.00,,,0.05,624.000000,,2013-03-03 20:11:00,
2013-03-03 12:32:00,50.0,34.0,-100.00,North,355,6.0,14.0,55,0.00,,,0.05,712.000000,,2013-03-03 20:32:00,
2013-03-03 12:42:00,50.0,34.0,-100.00,North,355,6.0,14.0,55,0.00,,,0.05,712.000000,,2013-03-03 20:42:00,
2013-03-03 12:52:00,50.0,34.0,-100.00,North,355,6.0,14.0,55,0.00,,,0.05,712.000000,,2013-03-03 20:52:00,
2013-03-03 13:01:00,50.0,34.0,-100.00,North,355,6.0,14.0,55,0.00,,,0.05,712.000000,,2013-03-03 21:01:00,
2013-03-03 13:11:00,50.0,34.0,-100.00,North,355,6.0,14.0,55,0.00,,,0.05,712.000000,,2013-03-03 21:11:00,
2013-03-03 13:42:00,51.0,31.0,-100.00,North,0,8.0,17.0,46,0.00,,,0.05,714.000000,,2013-03-03 21:42:00,
2013-03-03 13:52:00,51.0,31.0,-100.00,North,0,8.0,17.0,46,0.00,,,0.05,714.000000,,2013-03-03 21:52:00,
2013-03-03 14:01:00,51.0,31.0,-100.00,North,0,8.0,17.0,46,0.00,,,0.05,714.000000,,2013-03-03 22:01:00,
2013-03-03 14:11:00,51.0,31.0,-100.00,North,0,8.0,17.0,46,0.00,,,0.05,714.000000,,2013-03-03 22:11:00,
2013-03-03 14:32:00,51.0,28.0,-100.00,North,357,8.0,16.0,40,0.00,,,0.05,661.000000,,2013-03-03 22:32:00,
2013-03-03 14:42:00,51.0,28.0,-100.00,North,357,8.0,16.0,40,0.00,,,0.05,661.000000,,2013-03-03 22:42:00,
2013-03-03 14:52:00,51.0,28.0,-100.00,North,357,8.0,16.0,40,0.00,,,0.05,661.000000,,2013-03-03 22:52:00,
2013-03-03 15:01:00,51.0,28.0,-100.00,North,357,8.0,16.0,40,0.00,,,0.05,661.000000,,2013-03-03 23:01:00,
2013-03-03 15:11:00,51.0,28.0,-100.00,North,357,8.0,16.0,40,0.00,,,0.05,661.000000,,2013-03-03 23:11:00,
2013-03-03 15:32:00,52.0,25.0,-100.00,North,1,8.0,15.0,34,0.00,,,0.05,553.000000,,2013-03-03 23:32:00,
2013-03-03 15:42:00,52.0,25.0,-100.00,North,1,8.0,15.0,34,0.00,,,0.05,553.000000,,2013-03-03 23:42:00,
2013-03-03 15:52:00,52.0,25.0,-100.00,North,1,8.0,15.0,34,0.00,,,0.05,553.000000,,2013-03-03 23:52:00,
2013-03-03 16:01:00,52.0,25.0,-100.00,North,1,8.0,15.0,34,0.00,,,0.05,553.000000,,2013-03-04 00:01:00,
2013-03-03 16:11:00,52.0,25.0,-100.00,North,1,8.0,15.0,34,0.00,,,0.05,553.000000,,2013-03-04 00:11:00,
2013-03-03 16:32:00,49.0,34.0,-100.00,NW,312,16.0,23.0,55,0.00,,,0.04,395.000000,,2013-03-04 00:32:00,
2013-03-03 16:42:00,49.0,34.0,-100.00,NW,312,16.0,23.0,55,0.00,,,0.04,395.000000,,2013-03-04 00:42:00,
2013-03-03 16:52:00,49.0,34.0,-100.00,NW,312,16.0,23.0,55,0.00,,,0.04,395.000000,,2013-03-04 00:52:00,
2013-03-03 17:01:00,49.0,34.0,-100.00,NW,312,16.0,23.0,55,0.00,,,0.04,395.000000,,2013-03-04 01:01:00,
2013-03-03 17:11:00,49.0,34.0,-100.00,NW,312,16.0,23.0,55,0.00,,,0.04,395.000000,,2013-03-04 01:11:00,
2013-03-03 17:32:00,46.0,35.0,-100.00,NW,311,12.0,21.0,64,0.00,,,0.03,214.000000,,2013-03-04 01:32:00,
2013-03-03 17:42:00,46.0,35.0,-100.00,NW,311,12.0,21.0,64,0.00,,,0.03,214.000000,,2013-03-04 01:42:00,
2013-03-03 17:52:00,46.0,35.0,-100.00,NW,311,12.0,21.0,64,0.00,,,0.03,214.000000,,2013-03-04 01:52:00,
2013-03-03 18:01:00,46.0,35.0,-100.00,NW,311,12.0,21.0,64,0.00,,,0.03,214.000000,,2013-03-04 02:01:00,
2013-03-03 18:11:00,46.0,35.0,-100.00,NW,311,12.0,21.0,64,0.00,,,0.03,214.000000,,2013-03-04 02:11:00,
2013-03-03 18:42:00,42.0,35.0,-100.00,NW,321,12.0,19.0,75,0.00,,,0.03,46.000000,,2013-03-04 02:42:00,
2013-03-03 18:52:00,42.0,35.0,-100.00,NW,321,12.0,19.0,75,0.00,,,0.03,46.000000,,2013-03-04 02:52:00,
2013-03-03 19:01:00,42.0,35.0,-100.00,NW,321,12.0,19.0,75,0.00,,,0.03,46.000000,,2013-03-04 03:01:00,
2013-03-03 19:11:00,42.0,35.0,-100.00,NW,321,12.0,19.0,75,0.00,,,0.03,46.000000,,2013-03-04 03:11:00,
2013-03-03 19:32:00,40.0,35.0,-100.00,NNW,331,8.0,12.0,82,0.00,,,0.03,0.000000,,2013-03-04 03:32:00,
2013-03-03 19:42:00,40.0,35.0,-100.00,NNW,331,8.0,12.0,82,0.00,,,0.03,0.000000,,2013-03-04 03:42:00,
2013-03-03 19:52:00,40.0,35.0,-100.00,NNW,331,8.0,12.0,82,0.00,,,0.03,0.000000,,2013-03-04 03:52:00,
2013-03-03 20:01:00,40.0,35.0,-100.00,NNW,331,8.0,12.0,82,0.00,,,0.03,0.000000,,2013-03-04 04:01:00,
2013-03-03 20:11:00,40.0,35.0,-100.00,NNW,331,8.0,12.0,82,0.00,,,0.03,0.000000,,2013-03-04 04:11:00,
2013-03-03 20:32:00,39.0,35.0,-100.00,NNW,332,6.0,11.0,86,0.00,,,0.03,0.000000,,2013-03-04 04:32:00,
2013-03-03 20:42:00,39.0,35.0,-100.00,NNW,332,6.0,11.0,86,0.00,,,0.03,0.000000,,2013-03-04 04:42:00,
2013-03-03 20:52:00,39.0,35.0,-100.00,NNW,332,6.0,11.0,86,0.00,,,0.03,0.000000,,2013-03-04 04:52:00,
2013-03-03 21:01:00,39.0,35.0,-100.00,NNW,332,6.0,11.0,86,0.00,,,0.03,0.000000,,2013-03-04 05:01:00,
2013-03-03 21:11:00,39.0,35.0,-100.00,NNW,332,6.0,11.0,86,0.00,,,0.03,0.000000,,2013-03-04 05:11:00,
2013-03-03 21:32:00,39.0,35.0,-100.00,NNW,347,6.0,10.0,86,0.00,,,0.03,0.000000,,2013-03-04 05:32:00,
2013-03-03 21:42:00,39.0,35.0,-100.00,NNW,347,6.0,10.0,86,0.00,,,0.03,0.000000,,2013-03-04 05:42:00,
2013-03-03 21:52:00,39.0,35.0,-100.00,NNW,347,6.0,10.0,86,0.00,,,0.03,0.000000,,2013-03-04 05:52:00,
2013-03-03 22:01:00,39.0,35.0,-100.00,NNW,347,6.0,10.0,86,0.00,,,0.03,0.000000,,2013-03-04 06:01:00,
2013-03-03 22:11:00,39.0,35.0,-100.00,NNW,347,6.0,10.0,86,0.00,,,0.03,0.000000,,2013-03-04 06:11:00,
2013-03-03 22:32:00,37.0,33.0,-100.00,NE,37,3.0,9.0,86,0.00,,,0.02,0.000000,,2013-03-04 06:32:00,
2013-03-03 22:42:00,37.0,33.0,-100.00,NE,37,3.0,9.0,86,0.00,,,0.02,0.000000,,2013-03-04 06:42:00,
2013-03-03 22:52:00,37.0,33.0,-100.00,NE,37,3.0,9.0,86,0.00,,,0.02,0.000000,,2013-03-04 06:52:00,
2013-03-03 23:01:00,37.0,33.0,-100.00,NE,37,3.0,9.0,86,0.00,,,0.02,0.000000,,2013-03-04 07:01:00,
2013-03-03 23:11:00,37.0,33.0,-100.00,NE,37,3.0,9.0,86,0.00,,,0.02,0.000000,,2013-03-04 07:11:00,
2013-03-03 23:32:00,38.0,31.0,-100.00,North,11,3.0,6.0,76,0.00,,,0.00,0.000000,,2013-03-04 07:32:00,
2013-03-03 23:42:00,38.0,31.0,-100.00,North,11,3.0,6.0,76,0.00,,,0.00,0.000000,,2013-03-04 07:42:00,
2013-03-03 23:52:00,38.0,31.0,-100.00,North,11,3.0,6.0,76,0.00,,,0.00,0.000000,,2013-03-04 07:52:00,